Time;durP1;ratioP1;P1;durP2;ratioP2;P2;SDS_P1;SDS_P2;PMS_P1;PMS_P2;Temp;Humidity;BMP_temperature;BMP_pressure;BME280_temperature;BME280_humidity;BME280_pressure;Samples;Min_cycle;Max_cycle;Signal;HPM_P1;HPM_P2
2023/09/13 00:02:23;;;;;;;1999.90;999.90;;;19.60;99.90;;;;;;5100972;28;20033;-80
2023/09/13 00:04:48;;;;;;;1999.90;999.90;;;19.70;99.90;;;;;;5103116;28;20059;-80
2023/09/13 00:07:14;;;;;;;1999.90;999.90;;;19.60;99.90;;;;;;5120975;28;20028;-80
2023/09/13 00:09:41;;;;;;;1999.90;999.90;;;20.00;99.90;;;;;;5122414;28;20043;-80
2023/09/13 00:12:10;;;;;;;1999.90;999.90;;;19.90;99.90;;;;;;5122947;28;20097;-80
2023/09/13 00:14:36;;;;;;;1999.90;999.90;;;20.10;99.90;;;;;;5108794;28;20037;-80
2023/09/13 00:17:02;;;;;;;1999.90;999.90;;;20.10;99.90;;;;;;5093650;28;20474;-80
2023/09/13 00:19:27;;;;;;;1999.90;999.90;;;20.10;99.90;;;;;;5093800;28;20048;-80
2023/09/13 00:21:53;;;;;;;1999.90;999.90;;;20.10;99.90;;;;;;5094741;28;20028;-80
2023/09/13 00:24:19;;;;;;;1999.90;999.90;;;20.10;99.90;;;;;;5093951;28;20509;-80
2023/09/13 00:26:45;;;;;;;1999.90;999.90;;;20.10;99.90;;;;;;5095085;28;20103;-80
2023/09/13 00:29:10;;;;;;;1999.90;999.90;;;20.20;99.90;;;;;;5095328;28;20098;-80
2023/09/13 00:31:36;;;;;;;1999.90;999.90;;;20.10;99.90;;;;;;5093837;28;20168;-80
2023/09/13 00:34:02;;;;;;;1999.90;999.90;;;20.30;99.90;;;;;;5093725;28;20036;-79
2023/09/13 00:36:27;;;;;;;1999.90;999.90;;;20.30;99.90;;;;;;5093975;28;20033;-80
2023/09/13 00:38:53;;;;;;;1999.90;999.90;;;20.30;99.90;;;;;;5093462;28;20060;-80
2023/09/13 00:41:19;;;;;;;1999.90;999.90;;;20.30;99.90;;;;;;5095424;28;20029;-80
2023/09/13 00:43:44;;;;;;;1999.90;999.90;;;20.40;99.90;;;;;;5095026;28;20037;-80
2023/09/13 00:46:10;;;;;;;1999.90;999.90;;;20.20;99.90;;;;;;5095086;28;20375;-80
2023/09/13 00:48:36;;;;;;;1999.90;999.90;;;20.30;99.90;;;;;;5095336;28;20420;-79
2023/09/13 00:51:03;;;;;;;1999.90;999.90;;;20.40;99.90;;;;;;5101189;28;20113;-79
2023/09/13 00:53:31;;;;;;;1999.90;999.90;;;20.50;99.90;;;;;;5114053;28;20121;-80
2023/09/13 00:55:58;;;;;;;1999.90;999.90;;;20.40;99.90;;;;;;5114171;28;20028;-80
2023/09/13 00:58:25;;;;;;;1999.90;999.90;;;20.50;99.90;;;;;;5118046;27;20111;-80
2023/09/13 01:00:53;;;;;;;1999.90;999.90;;;20.50;99.90;;;;;;5117546;28;20123;-80
2023/09/13 01:03:20;;;;;;;1999.90;999.90;;;20.50;99.90;;;;;;5117199;28;20106;-80
2023/09/13 01:05:47;;;;;;;1999.90;999.90;;;20.40;99.90;;;;;;5100292;28;20035;-80
2023/09/13 01:08:13;;;;;;;1999.90;999.90;;;20.40;99.90;;;;;;5097761;28;20082;-80
2023/09/13 01:10:38;;;;;;;1999.90;999.90;;;20.40;99.90;;;;;;5097125;28;20032;-80
2023/09/13 01:13:04;;;;;;;1999.90;999.90;;;20.30;99.90;;;;;;5098645;28;20029;-80
2023/09/13 01:15:35;;;;;;;1999.90;999.90;;;20.30;99.90;;;;;;5098766;28;20044;-80
2023/09/13 01:18:21;;;;;;;1999.90;999.90;;;20.20;99.90;;;;;;5096670;28;20036;-80
2023/09/13 01:21:05;;;;;;;1999.90;999.90;;;20.20;99.90;;;;;;5098771;28;20115;-80
2023/09/13 01:24:11;;;;;;;1999.90;999.90;;;20.10;99.90;;;;;;5097248;28;20048;-80
2023/09/13 01:26:54;;;;;;;1999.90;999.90;;;20.20;99.90;;;;;;5077921;28;20036;-80
2023/09/13 01:29:20;;;;;;;1999.90;999.90;;;20.30;99.90;;;;;;5076298;28;20048;-80
2023/09/13 01:31:46;;;;;;;1999.90;999.90;;;20.20;99.90;;;;;;5078344;28;20386;-80
2023/09/13 01:34:11;;;;;;;1999.90;999.90;;;20.20;99.90;;;;;;5093487;28;20069;-80
2023/09/13 01:36:37;;;;;;;1999.90;999.90;;;20.20;99.90;;;;;;5093060;28;20511;-80
2023/09/13 01:39:06;;;;;;;1999.90;999.90;;;20.10;99.90;;;;;;5078190;28;20856;-80
2023/09/13 01:41:39;;;;;;;1999.90;999.90;;;20.00;99.90;;;;;;5093746;28;20025;-80
2023/09/13 01:44:06;;;;;;;1999.90;999.90;;;19.90;99.90;;;;;;5078230;28;20041;-80
2023/09/13 01:46:35;;;;;;;1999.90;999.90;;;19.80;99.90;;;;;;5076627;28;20035;-80
2023/09/13 01:49:02;;;;;;;1999.90;999.90;;;19.80;99.90;;;;;;5091872;28;20502;-81
2023/09/13 01:51:28;;;;;;;1999.90;999.90;;;19.70;99.90;;;;;;5116012;27;20039;-80
2023/09/13 01:53:56;;;;;;;1999.90;999.90;;;19.70;99.90;;;;;;5116323;28;20032;-80
2023/09/13 01:56:22;;;;;;;1999.90;999.90;;;19.70;99.90;;;;;;5117436;28;20483;-81
2023/09/13 01:58:49;;;;;;;1999.90;999.90;;;19.60;99.90;;;;;;5115750;28;20035;-81
2023/09/13 02:01:15;;;;;;;1999.90;999.90;;;19.50;99.90;;;;;;5116230;28;20032;-80
2023/09/13 02:03:40;;;;;;;1999.90;999.90;;;19.40;99.90;;;;;;5116104;28;20574;-81
2023/09/13 02:06:06;;;;;;;1999.90;999.90;;;19.30;99.90;;;;;;5098626;28;20041;-80
2023/09/13 02:08:32;;;;;;;1999.90;999.90;;;19.10;99.90;;;;;;5096698;28;20489;-80
2023/09/13 02:10:57;;;;;;;1999.90;999.90;;;19.10;99.90;;;;;;5095013;28;20082;-81
2023/09/13 02:13:23;;;;;;;1999.90;999.90;;;19.00;99.90;;;;;;5095638;28;20036;-80
2023/09/13 02:15:48;;;;;;;1999.90;999.90;;;19.00;99.90;;;;;;5095439;28;20363;-80
2023/09/13 02:18:14;;;;;;;1999.90;999.90;;;19.10;99.90;;;;;;5096686;28;20450;-81
2023/09/13 02:20:40;;;;;;;1999.90;999.90;;;18.90;99.90;;;;;;5097043;28;20063;-81
2023/09/13 02:23:05;;;;;;;1999.90;999.90;;;19.00;99.90;;;;;;5096907;28;20045;-80
2023/09/13 02:25:36;;;;;;;1999.90;999.90;;;19.10;99.90;;;;;;5097064;28;20122;-80
2023/09/13 02:28:03;;;;;;;1999.90;999.90;;;19.20;99.90;;;;;;5096603;28;20163;-80
2023/09/13 02:30:29;;;;;;;1999.90;999.90;;;19.30;99.90;;;;;;5095363;28;20064;-81
2023/09/13 02:32:55;;;;;;;1999.90;999.90;;;19.40;99.90;;;;;;5096726;28;20033;-80
2023/09/13 02:35:20;;;;;;;1999.90;999.90;;;19.40;99.90;;;;;;5096980;28;20036;-81
2023/09/13 02:37:47;;;;;;;1999.90;999.90;;;19.50;99.90;;;;;;5100663;28;20036;-80
2023/09/13 02:40:13;;;;;;;1999.90;999.90;;;19.40;99.90;;;;;;5116296;28;20856;-80
2023/09/13 02:42:39;;;;;;;1999.90;999.90;;;19.50;99.90;;;;;;5117577;27;20052;-80
2023/09/13 02:45:05;;;;;;;1999.90;999.90;;;19.60;99.90;;;;;;5115963;28;20055;-80
2023/09/13 02:47:31;;;;;;;1999.90;999.90;;;19.50;99.90;;;;;;5115661;28;20476;-80
2023/09/13 02:49:56;;;;;;;1999.90;999.90;;;19.60;99.90;;;;;;5116859;28;20032;-80
2023/09/13 02:52:32;;;;;;;1999.90;999.90;;;19.50;99.90;;;;;;5115902;28;20598;-80
2023/09/13 02:55:00;;;;;;;1999.90;999.90;;;19.40;99.90;;;;;;5115865;28;20036;-81
2023/09/13 02:57:25;;;;;;;1999.90;999.90;;;19.40;99.90;;;;;;5114490;27;20500;-80
2023/09/13 02:59:52;;;;;;;1999.90;999.90;;;19.30;99.90;;;;;;5096816;28;20092;-80
2023/09/13 03:02:17;;;;;;;1999.90;999.90;;;19.30;99.90;;;;;;5096434;28;20059;-81
2023/09/13 03:04:43;;;;;;;1999.90;999.90;;;19.30;99.90;;;;;;5094877;28;20068;-80
2023/09/13 03:07:09;;;;;;;1999.90;999.90;;;19.30;99.90;;;;;;5096064;28;20067;-80
2023/09/13 03:09:35;;;;;;;1999.90;999.90;;;19.40;99.90;;;;;;5096455;28;20044;-81
2023/09/13 03:12:02;;;;;;;1999.90;999.90;;;19.40;99.90;;;;;;5096648;28;20032;-80
2023/09/13 03:14:31;;;;;;;1999.90;999.90;;;19.40;99.90;;;;;;5095777;28;20511;-80
2023/09/13 03:16:56;;;;;;;1999.90;999.90;;;19.30;99.90;;;;;;5095714;28;20166;-80
2023/09/13 03:19:22;;;;;;;1999.90;999.90;;;19.30;99.90;;;;;;5094239;28;20131;-80
2023/09/13 03:21:49;;;;;;;1999.90;999.90;;;19.20;99.90;;;;;;5095106;28;20029;-80
2023/09/13 03:24:15;;;;;;;1999.90;999.90;;;19.10;99.90;;;;;;5094308;28;20127;-80
2023/09/13 03:26:41;;;;;;;1999.90;999.90;;;19.00;99.90;;;;;;5096204;28;20111;-80
2023/09/13 03:29:06;;;;;;;1999.90;999.90;;;18.80;99.90;;;;;;5094271;28;20144;-81
2023/09/13 03:31:32;;;;;;;1999.90;999.90;;;18.80;99.90;;;;;;5096821;28;20056;-80
2023/09/13 03:33:59;;;;;;;1999.90;999.90;;;18.80;99.90;;;;;;5097144;28;20036;-80
2023/09/13 03:36:28;;;;;;;1999.90;999.90;;;19.00;99.90;;;;;;5094294;28;20064;-80
2023/09/13 03:38:54;;;;;;;1999.90;999.90;;;18.80;99.90;;;;;;5104461;22;20106;-80
2023/09/13 03:41:21;;;;;;;1999.90;999.90;;;18.70;99.90;;;;;;5074060;28;20043;-80
2023/09/13 03:43:48;;;;;;;1999.90;999.90;;;19.00;99.90;;;;;;5075281;28;20044;-80
2023/09/13 03:46:13;;;;;;;1999.90;999.90;;;18.80;99.90;;;;;;5076432;28;20029;-80
2023/09/13 03:48:40;;;;;;;1999.90;999.90;;;18.90;99.90;;;;;;5087143;28;20374;-80
2023/09/13 03:51:07;;;;;;;1999.90;999.90;;;18.90;99.90;;;;;;5114596;28;20029;-81
2023/09/13 03:53:33;;;;;;;1999.90;999.90;;;18.90;99.90;;;;;;5114113;28;20036;-79
2023/09/13 03:56:00;;;;;;;1999.90;999.90;;;18.90;99.90;;;;;;5112904;28;21201;-80
2023/09/13 03:58:25;;;;;;;1999.90;999.90;;;18.90;99.90;;;;;;5098163;28;20032;-80
2023/09/13 04:00:51;;;;;;;1999.90;999.90;;;18.90;99.90;;;;;;5097770;28;20470;-80
2023/09/13 04:03:17;;;;;;;1999.90;999.90;;;18.80;99.90;;;;;;5113759;28;20029;-79
2023/09/13 04:05:43;;;;;;;1999.90;999.90;;;18.80;99.90;;;;;;5112993;28;20532;-80
2023/09/13 04:08:08;;;;;;;1999.90;999.90;;;18.80;99.90;;;;;;5104691;28;20028;-80
2023/09/13 04:10:34;;;;;;;1999.90;999.90;;;18.70;99.90;;;;;;5116986;28;20036;-80
2023/09/13 04:12:59;;;;;;;1999.90;999.90;;;18.70;99.90;;;;;;5117886;28;20107;-80
2023/09/13 04:15:25;;;;;;;1999.90;999.90;;;18.60;99.90;;;;;;5118234;28;20040;-80
2023/09/13 04:17:51;;;;;;;1999.90;999.90;;;18.60;99.90;;;;;;5116605;28;20058;-80
2023/09/13 04:20:17;;;;;;;1999.90;999.90;;;18.60;99.90;;;;;;5117386;28;20129;-80
2023/09/13 04:22:42;;;;;;;1999.90;999.90;;;18.70;99.90;;;;;;5117621;28;20036;-80
2023/09/13 04:25:08;;;;;;;1999.90;999.90;;;18.60;99.90;;;;;;5116785;28;20050;-80
2023/09/13 04:27:34;;;;;;;1999.90;999.90;;;18.50;99.90;;;;;;5116847;28;20054;-79
2023/09/13 04:30:00;;;;;;;1999.90;999.90;;;18.60;99.90;;;;;;5118533;28;20040;-81
2023/09/13 04:32:26;;;;;;;1999.90;999.90;;;18.50;99.90;;;;;;5118374;27;20036;-80
2023/09/13 04:34:52;;;;;;;1999.90;999.90;;;18.50;99.90;;;;;;5119940;28;20111;-80
2023/09/13 04:37:18;;;;;;;1999.90;999.90;;;18.40;99.90;;;;;;5121664;27;20440;-80
2023/09/13 04:39:44;;;;;;;1999.90;999.90;;;18.40;99.90;;;;;;5102571;27;20040;-80
2023/09/13 04:42:10;;;;;;;1999.90;999.90;;;18.30;99.90;;;;;;5101108;28;20029;-80
2023/09/13 04:44:36;;;;;;;1999.90;999.90;;;18.30;99.90;;;;;;5101126;28;20841;-80
2023/09/13 04:47:02;;;;;;;1999.90;999.90;;;18.40;99.90;;;;;;5100046;28;20044;-80
2023/09/13 04:49:28;;;;;;;1999.90;999.90;;;18.40;99.90;;;;;;5117755;27;20522;-80
2023/09/13 04:51:54;;;;;;;1999.90;999.90;;;18.60;99.90;;;;;;5099395;28;20123;-78
2023/09/13 04:54:23;;;;;;;1999.90;999.90;;;18.50;99.90;;;;;;5101330;28;20052;-79
2023/09/13 04:56:52;;;;;;;1999.90;999.90;;;18.70;99.90;;;;;;5091805;28;20064;-80
2023/09/13 04:59:18;;;;;;;1999.90;999.90;;;18.70;99.90;;;;;;5080257;28;20122;-80
2023/09/13 05:01:44;;;;;;;1999.90;999.90;;;18.80;99.90;;;;;;5079838;28;20025;-80
2023/09/13 05:04:10;;;;;;;1999.90;999.90;;;18.80;99.90;;;;;;5079111;28;20047;-79
2023/09/13 05:06:36;;;;;;;1999.90;999.90;;;18.80;99.90;;;;;;5089721;28;20071;-79
2023/09/13 05:09:02;;;;;;;1999.90;999.90;;;18.90;99.90;;;;;;5122477;28;20064;-78
2023/09/13 05:11:27;;;;;;;1999.90;999.90;;;18.90;99.90;;;;;;5125870;28;20032;-79
2023/09/13 05:14:11;;;;;;;1999.90;999.90;;;18.90;99.90;;;;;;5106202;28;20040;-79
2023/09/13 05:16:36;;;;;;;1999.90;999.90;;;18.90;99.90;;;;;;5089027;28;20105;-80
2023/09/13 05:19:02;;;;;;;1999.90;999.90;;;18.90;99.90;;;;;;5099990;28;20040;-79
2023/09/13 05:21:28;;;;;;;1999.90;999.90;;;19.00;99.90;;;;;;5097411;28;20107;-79
2023/09/13 05:23:53;;;;;;;1999.90;999.90;;;18.90;99.90;;;;;;5098047;28;20082;-79
2023/09/13 05:26:19;;;;;;;1999.90;999.90;;;19.00;99.90;;;;;;5098952;28;20082;-79
2023/09/13 05:28:45;;;;;;;1999.90;999.90;;;18.90;99.90;;;;;;5097015;28;20047;-79
2023/09/13 05:31:11;;;;;;;1999.90;999.90;;;19.00;99.90;;;;;;5098119;28;20032;-79
2023/09/13 05:33:37;;;;;;;1999.90;999.90;;;18.90;99.90;;;;;;5099243;28;20044;-79
2023/09/13 05:36:07;;;;;;;1999.90;999.90;;;18.80;99.90;;;;;;5098968;28;20136;-79
2023/09/13 05:38:33;;;;;;;1999.90;999.90;;;18.80;99.90;;;;;;5097686;28;20047;-79
2023/09/13 05:40:58;;;;;;;1999.90;999.90;;;18.60;99.90;;;;;;5099489;28;20024;-79
2023/09/13 05:43:24;;;;;;;1999.90;999.90;;;18.70;99.90;;;;;;5096819;28;20037;-79
2023/09/13 05:45:50;;;;;;;1999.90;999.90;;;18.80;99.90;;;;;;5098788;28;20496;-79
2023/09/13 05:48:15;;;;;;;1999.90;999.90;;;18.90;99.90;;;;;;5100131;28;20029;-79
2023/09/13 05:50:41;;;;;;;1999.90;999.90;;;19.00;99.90;;;;;;5097794;28;20768;-79
2023/09/13 05:53:07;;;;;;;1999.90;999.90;;;19.20;99.90;;;;;;5099087;28;20436;-79
2023/09/13 05:55:32;;;;;;;1999.90;999.90;;;19.20;99.90;;;;;;5101788;28;20509;-79
2023/09/13 05:57:58;;;;;;;1999.90;999.90;;;19.40;99.90;;;;;;5100905;28;20063;-79
2023/09/13 06:00:23;;;;;;;1999.90;999.90;;;19.50;99.90;;;;;;5106111;28;20033;-79
2023/09/13 06:02:49;;;;;;;1999.90;999.90;;;19.70;99.90;;;;;;5113692;28;20446;-78
2023/09/13 06:05:14;;;;;;;1999.90;999.90;;;20.00;99.90;;;;;;5118409;28;20036;-78
2023/09/13 06:07:40;;;;;;;1999.90;999.90;;;20.20;99.90;;;;;;5098725;28;20024;-80
2023/09/13 06:10:06;;;;;;;1999.90;999.90;;;20.30;99.90;;;;;;5102941;28;20036;-78
2023/09/13 06:12:32;;;;;;;1999.90;999.90;;;20.40;99.90;;;;;;5097723;28;20566;-78
2023/09/13 06:14:59;;;;;;;1999.90;999.90;;;20.50;99.90;;;;;;5093679;28;20094;-79
2023/09/13 06:17:25;;;;;;;1999.90;999.90;;;20.50;99.90;;;;;;5094310;27;20080;-79
2023/09/13 06:19:51;;;;;;;1999.90;999.90;;;20.50;99.90;;;;;;5079722;28;20045;-79
2023/09/13 06:22:17;;;;;;;1999.90;999.90;;;20.50;99.90;;;;;;5078058;28;20037;-78
2023/09/13 06:24:46;;;;;;;1999.90;999.90;;;20.60;99.90;;;;;;5095184;28;20481;-78
2023/09/13 06:27:12;;;;;;;1999.90;999.90;;;20.50;99.90;;;;;;5079282;28;20025;-78
2023/09/13 06:29:37;;;;;;;1999.90;999.90;;;20.60;99.90;;;;;;5079225;28;20029;-79
2023/09/13 06:32:03;;;;;;;1999.90;999.90;;;20.40;99.90;;;;;;5080030;28;20040;-79
2023/09/13 06:34:29;;;;;;;1999.90;999.90;;;20.50;99.90;;;;;;5080226;28;20037;-79
2023/09/13 06:36:55;;;;;;;1999.90;999.90;;;20.50;99.90;;;;;;5079717;28;20108;-79
2023/09/13 06:39:21;;;;;;;1999.90;999.90;;;20.30;99.90;;;;;;5094800;28;20132;-79
2023/09/13 06:41:47;;;;;;;1999.90;999.90;;;20.20;99.90;;;;;;5076009;28;20029;-79
2023/09/13 06:44:14;;;;;;;1999.90;999.90;;;20.20;99.90;;;;;;5079747;28;20110;-79
2023/09/13 06:46:41;;;;;;;1999.90;999.90;;;20.20;99.90;;;;;;5079281;28;20403;-79
2023/09/13 06:49:06;;;;;;;1999.90;999.90;;;20.20;99.90;;;;;;5077816;28;20119;-80
2023/09/13 06:51:32;;;;;;;1999.90;999.90;;;20.30;99.90;;;;;;5080628;28;20064;-82
2023/09/13 06:53:58;;;;;;;1999.90;999.90;;;20.30;99.90;;;;;;5093829;28;20040;-82
2023/09/13 06:56:24;;;;;;;1999.90;999.90;;;20.40;99.90;;;;;;5096116;28;20033;-82
2023/09/13 06:58:49;;;;;;;1999.90;999.90;;;20.40;99.90;;;;;;5101785;28;20036;-81
2023/09/13 07:01:15;;;;;;;1999.90;999.90;;;20.40;99.90;;;;;;5107911;28;20040;-80
2023/09/13 07:03:40;;;;;;;1999.90;999.90;;;20.50;99.90;;;;;;5121122;28;20040;-82
2023/09/13 07:06:06;;;;;;;1999.90;999.90;;;20.50;99.90;;;;;;5114508;28;20036;-81
2023/09/13 07:08:32;;;;;;;1999.90;999.90;;;20.60;99.90;;;;;;5098105;28;20039;-81
2023/09/13 07:10:57;;;;;;;1999.90;999.90;;;20.60;99.90;;;;;;5098630;28;20088;-81
2023/09/13 07:13:23;;;;;;;1999.90;999.90;;;20.50;99.90;;;;;;5119984;28;20036;-80
2023/09/13 07:15:49;;;;;;;1999.90;999.90;;;20.40;99.90;;;;;;5127021;28;20127;-80
2023/09/13 07:18:15;;;;;;;1999.90;999.90;;;20.40;99.90;;;;;;5122074;28;20113;-82
2023/09/13 07:20:41;;;;;;;1999.90;999.90;;;20.30;99.90;;;;;;5111551;28;20542;-80
2023/09/13 07:23:06;;;;;;;1999.90;999.90;;;20.30;99.90;;;;;;5115753;28;20051;-81
2023/09/13 07:25:32;;;;;;;1999.90;999.90;;;20.30;99.90;;;;;;5119029;28;20393;-80
2023/09/13 07:27:59;;;;;;;1999.90;999.90;;;20.30;99.90;;;;;;5118905;27;20879;-81
2023/09/13 07:30:25;;;;;;;1999.90;999.90;;;20.40;99.90;;;;;;5117338;28;20100;-79
2023/09/13 07:32:51;;;;;;;1999.90;999.90;;;20.40;99.90;;;;;;5101939;28;20485;-81
2023/09/13 07:35:16;;;;;;;1999.90;999.90;;;20.40;99.90;;;;;;5117929;28;20032;-81
2023/09/13 07:37:42;;;;;;;1999.90;999.90;;;20.60;99.90;;;;;;5118423;28;21066;-81
2023/09/13 07:40:10;;;;;;;1999.90;999.90;;;20.70;99.90;;;;;;5119769;28;20047;-82
2023/09/13 07:42:36;;;;;;;1999.90;999.90;;;20.70;99.90;;;;;;5109089;27;20035;-82
2023/09/13 07:45:02;;;;;;;1999.90;999.90;;;20.80;99.90;;;;;;5117685;28;20390;-82
2023/09/13 07:47:28;;;;;;;1999.90;999.90;;;20.80;99.90;;;;;;5112977;28;20039;-81
2023/09/13 07:49:54;;;;;;;1999.90;999.90;;;20.70;99.90;;;;;;5117425;27;20374;-81
2023/09/13 07:52:20;;;;;;;1999.90;999.90;;;20.60;99.90;;;;;;5104875;27;20071;-81
2023/09/13 07:54:46;;;;;;;1999.90;999.90;;;20.50;99.90;;;;;;5095715;28;20064;-82
2023/09/13 07:57:11;;;;;;;1999.90;999.90;;;20.30;99.90;;;;;;5111115;28;20032;-82
2023/09/13 07:59:37;;;;;;;1999.90;999.90;;;20.20;99.90;;;;;;5098210;28;20068;-82
2023/09/13 08:02:04;;;;;;;1999.90;999.90;;;20.20;99.90;;;;;;5097082;28;20494;-82
2023/09/13 08:04:29;;;;;;;1999.90;999.90;;;20.10;99.90;;;;;;5108688;28;20501;-81
2023/09/13 08:06:55;;;;;;;1999.90;999.90;;;20.00;99.90;;;;;;5116905;28;20033;-80
2023/09/13 08:09:21;;;;;;;1999.90;999.90;;;20.00;99.90;;;;;;5117150;28;20043;-80
2023/09/13 08:11:47;;;;;;;1999.90;999.90;;;20.00;99.90;;;;;;5113639;28;20025;-81
2023/09/13 08:14:12;;;;;;;1999.90;999.90;;;20.00;99.90;;;;;;5095361;28;20104;-80
2023/09/13 08:16:38;;;;;;;1999.90;999.90;;;20.10;99.90;;;;;;5095614;28;20465;-82
2023/09/13 08:19:04;;;;;;;1999.90;999.90;;;20.30;99.90;;;;;;5104122;28;20044;-82
2023/09/13 08:21:29;;;;;;;1999.90;999.90;;;20.30;99.90;;;;;;5116017;28;20036;-81
2023/09/13 08:23:55;;;;;;;1999.90;999.90;;;20.50;99.90;;;;;;5116785;28;20032;-81
2023/09/13 08:26:20;;;;;;;1999.90;999.90;;;20.70;99.90;;;;;;5116757;28;20478;-80
2023/09/13 08:28:46;;;;;;;1999.90;999.90;;;20.80;99.90;;;;;;5116881;28;20439;-81
2023/09/13 08:31:12;;;;;;;1999.90;999.90;;;21.20;99.90;;;;;;5103554;28;20032;-81
2023/09/13 08:33:37;;;;;;;1999.90;999.90;;;21.40;99.90;;;;;;5096400;28;20158;-81
2023/09/13 08:36:04;;;;;;;1999.90;999.90;;;21.50;99.90;;;;;;5096407;28;20036;-81
2023/09/13 08:38:30;;;;;;;1999.90;999.90;;;21.80;99.90;;;;;;5095235;28;20033;-83
2023/09/13 08:40:55;;;;;;;1999.90;999.90;;;21.80;99.90;;;;;;5114784;27;20036;-81
2023/09/13 08:43:22;;;;;;;1999.90;999.90;;;21.80;99.90;;;;;;5115642;28;20036;-81
2023/09/13 08:45:48;;;;;;;1999.90;999.90;;;21.80;99.90;;;;;;5113073;27;20040;-81
2023/09/13 08:48:16;;;;;;;1999.90;999.90;;;21.80;99.90;;;;;;5117159;27;20032;-81
2023/09/13 08:50:42;;;;;;;1999.90;999.90;;;21.90;99.90;;;;;;5113478;27;20488;-81
2023/09/13 08:53:10;;;;;;;1999.90;999.90;;;22.20;99.90;;;;;;5118435;27;20036;-79
2023/09/13 08:55:37;;;;;;;1999.90;999.90;;;22.40;99.90;;;;;;5101443;27;20516;-79
2023/09/13 08:58:03;;;;;;;1999.90;999.90;;;22.50;99.90;;;;;;5097120;27;20086;-79
2023/09/13 09:00:31;;;;;;;1999.90;999.90;;;22.40;99.90;;;;;;5099905;28;20505;-82
2023/09/13 09:03:02;;;;;;;1999.90;999.90;;;22.40;99.90;;;;;;5076580;28;20029;-83
2023/09/13 09:05:31;;;;;;;1999.90;999.90;;;22.60;99.90;;;;;;5078675;28;20037;-81
2023/09/13 09:07:57;;;;;;;1999.90;999.90;;;22.50;99.90;;;;;;5076350;28;20025;-83
2023/09/13 09:10:24;;;;;;;1999.90;999.90;;;22.30;99.90;;;;;;5093439;28;20036;-83
2023/09/13 09:12:55;;;;;;;1999.90;999.90;;;22.30;99.90;;;;;;5097602;28;20090;-81
2023/09/13 09:15:23;;;;;;;1999.90;999.90;;;22.50;99.90;;;;;;5113593;28;20043;-80
2023/09/13 09:17:50;;;;;;;1999.90;999.90;;;22.50;99.90;;;;;;5117987;27;20101;-80
2023/09/13 09:20:18;;;;;;;1999.90;999.90;;;22.40;99.90;;;;;;5121613;27;20111;-81
2023/09/13 09:22:43;;;;;;;1999.90;999.90;;;22.40;99.90;;;;;;5118298;28;20036;-84
2023/09/13 09:25:11;;;;;;;1999.90;999.90;;;22.20;99.90;;;;;;5086495;28;20106;-83
2023/09/13 09:27:38;;;;;;;1999.90;999.90;;;22.10;99.90;;;;;;5098993;28;20033;-81
2023/09/13 09:30:05;;;;;;;1999.90;999.90;;;22.00;99.90;;;;;;5115352;28;20040;-81
2023/09/13 09:32:31;;;;;;;1999.90;999.90;;;22.10;99.90;;;;;;5112849;28;20130;-82
2023/09/13 09:35:00;;;;;;;1999.90;999.90;;;22.20;99.90;;;;;;5099102;28;20127;-81
2023/09/13 09:37:30;;;;;;;1999.90;999.90;;;22.30;99.90;;;;;;5097875;28;20040;-81
2023/09/13 09:39:55;;;;;;;1999.90;999.90;;;22.50;99.90;;;;;;5110569;28;20047;-81
2023/09/13 09:42:21;;;;;;;1999.90;999.90;;;22.70;99.90;;;;;;5124655;28;20039;-81
2023/09/13 09:44:47;;;;;;;1999.90;999.90;;;22.90;99.90;;;;;;5121801;28;20032;-82
2023/09/13 09:47:13;;;;;;;1999.90;999.90;;;22.90;99.90;;;;;;5123790;28;20040;-82
2023/09/13 09:49:40;;;;;;;1999.90;999.90;;;23.10;99.90;;;;;;5122544;28;20119;-82
2023/09/13 09:52:10;;;;;;;1999.90;999.90;;;23.40;99.90;;;;;;5103490;28;20517;-82
2023/09/13 09:54:37;;;;;;;1999.90;999.90;;;23.40;99.90;;;;;;5116421;28;20032;-81
2023/09/13 09:57:04;;;;;;;1999.90;999.90;;;23.50;99.90;;;;;;5112301;28;20782;-82
2023/09/13 09:59:30;;;;;;;1999.90;999.90;;;23.50;99.90;;;;;;5103163;28;20096;-83
2023/09/13 10:02:00;;;;;;;1999.90;999.90;;;23.40;99.90;;;;;;5104192;28;20512;-82
2023/09/13 10:04:26;;;;;;;1999.90;999.90;;;23.20;99.90;;;;;;5082170;28;20051;-81
2023/09/13 10:06:56;;;;;;;1999.90;999.90;;;23.20;99.90;;;;;;5081385;28;20033;-81
2023/09/13 10:09:21;;;;;;;1999.90;999.90;;;23.20;99.90;;;;;;5080592;28;20028;-79
2023/09/13 10:11:47;;;;;;;1999.90;999.90;;;23.20;99.90;;;;;;5081759;28;20029;-80
2023/09/13 10:14:26;;;;;;;1999.90;999.90;;;23.40;99.90;;;;;;5121356;28;20101;-80
2023/09/13 10:16:53;;;;;;;1999.90;999.90;;;23.50;99.90;;;;;;5123147;28;20028;-82
2023/09/13 10:19:22;;;;;;;1999.90;999.90;;;23.40;99.90;;;;;;5120688;27;20036;-81
2023/09/13 10:21:50;;;;;;;1999.90;999.90;;;23.30;99.90;;;;;;5118139;28;20591;-81
2023/09/13 10:24:20;;;;;;;1999.90;999.90;;;23.60;99.90;;;;;;5099767;27;20047;-80
2023/09/13 10:26:49;;;;;;;1999.90;999.90;;;23.80;99.90;;;;;;5098214;28;20428;-81
2023/09/13 10:29:31;;;;;;;1999.90;999.90;;;24.10;99.90;;;;;;5098164;28;20040;-80
2023/09/13 10:32:02;;;;;;;1999.90;999.90;;;24.50;99.90;;;;;;5099656;28;20028;-80
2023/09/13 10:34:32;;;;;;;1999.90;999.90;;;24.50;99.90;;;;;;5096954;28;20565;-80
2023/09/13 10:37:06;;;;;;;1999.90;999.90;;;24.80;99.90;;;;;;5113443;28;20043;-81
2023/09/13 10:40:10;;;;;;;1999.90;999.90;;;25.10;99.90;;;;;;5118171;28;20116;-81
2023/09/13 10:42:40;;;;;;;1999.90;999.90;;;25.30;99.90;;;;;;5081245;28;20036;-81
2023/09/13 10:45:07;;;;;;;1999.90;999.90;;;25.50;99.90;;;;;;5112784;27;20036;-81
2023/09/13 10:47:35;;;;;;;1999.90;999.90;;;25.40;99.90;;;;;;5115173;28;20837;-81
2023/09/13 10:50:02;;;;;;;1999.90;999.90;;;25.10;99.90;;;;;;5117113;28;20038;-81
2023/09/13 10:52:29;;;;;;;1999.90;999.90;;;24.30;99.90;;;;;;5116972;28;20035;-82
2023/09/13 10:54:58;;;;;;;1999.90;999.90;;;24.40;99.90;;;;;;5118244;28;20107;-80
2023/09/13 10:57:24;;;;;;;1999.90;999.90;;;24.50;99.90;;;;;;5118620;27;20067;-80
2023/09/13 10:59:51;;;;;;;1999.90;999.90;;;24.50;99.90;;;;;;5119172;27;20086;-83
2023/09/13 11:02:17;;;;;;;1999.90;999.90;;;24.30;99.90;;;;;;5101374;27;20032;-80
2023/09/13 11:04:44;;;;;;;1999.90;999.90;;;24.40;99.90;;;;;;5117394;28;20040;-81
2023/09/13 11:07:13;;;;;;;1999.90;999.90;;;24.70;99.90;;;;;;5098853;28;20077;-80
2023/09/13 11:09:39;;;;;;;1999.90;999.90;;;24.90;99.90;;;;;;5117665;28;20032;-79
2023/09/13 11:12:05;;;;;;;1999.90;999.90;;;24.90;99.90;;;;;;5116294;28;20397;-79
2023/09/13 11:14:31;;;;;;;1999.90;999.90;;;25.00;99.90;;;;;;5116913;27;20028;-79
2023/09/13 11:17:37;;;;;;;1999.90;999.90;;;25.10;99.90;;;;;;5118350;27;20450;-81
2023/09/13 11:20:22;;;;;;;1999.90;999.90;;;25.30;99.90;;;;;;5116688;28;20070;-80
2023/09/13 11:23:00;;;;;;;1999.90;999.90;;;25.40;99.90;;;;;;5117797;28;20433;-80
2023/09/13 11:25:31;;;;;;;1999.90;999.90;;;25.60;99.90;;;;;;5103001;27;20072;-81
2023/09/13 11:27:56;;;;;;;1999.90;999.90;;;25.60;99.90;;;;;;5111256;28;20525;-82
2023/09/13 11:30:45;;;;;;;1999.90;999.90;;;25.60;99.90;;;;;;5098584;28;20043;-82
2023/09/13 11:33:12;;;;;;;1999.90;999.90;;;25.80;99.90;;;;;;5104641;28;20476;-81
2023/09/13 11:35:38;;;;;;;1999.90;999.90;;;26.30;99.90;;;;;;5106278;28;20044;-82
2023/09/13 11:38:04;;;;;;;1999.90;999.90;;;26.30;99.90;;;;;;5112802;28;20036;-83
2023/09/13 11:40:30;;;;;;;1999.90;999.90;;;26.40;99.90;;;;;;5095801;28;20401;-79
2023/09/13 11:42:55;;;;;;;1999.90;999.90;;;26.40;99.90;;;;;;5116892;27;20109;-81
2023/09/13 11:45:21;;;;;;;1999.90;999.90;;;26.70;99.90;;;;;;5106271;28;20048;-81
2023/09/13 11:47:50;;;;;;;1999.90;999.90;;;26.70;99.90;;;;;;5095153;28;20068;-81
2023/09/13 11:50:16;;;;;;;1999.90;999.90;;;26.90;99.90;;;;;;5097404;28;20446;-82
2023/09/13 11:53:08;;;;;;;1999.90;999.90;;;26.30;99.90;;;;;;5098359;28;20036;-82
2023/09/13 11:55:38;;;;;;;1999.90;999.90;;;26.20;99.90;;;;;;5099999;28;20595;-82
2023/09/13 11:58:03;;;;;;;1999.90;999.90;;;26.20;99.90;;;;;;5095451;28;20024;-82
2023/09/13 12:00:29;;;;;;;1999.90;999.90;;;26.20;99.90;;;;;;5083808;28;20032;-82